sensor_id;sensor_type;location;lat;lon;timestamp;P1;durP1;ratioP1;P2;durP2;ratioP2
22068;SDS011;13887;57.196;-2.100;2023-07-28T00:01:00;12.80;;;12.40;;
22068;SDS011;13887;57.196;-2.100;2023-07-28T00:03:28;12.37;;;11.97;;
22068;SDS011;13887;57.196;-2.100;2023-07-28T00:05:55;13.00;;;12.60;;
22068;SDS011;13887;57.196;-2.100;2023-07-28T00:08:24;12.83;;;12.43;;
22068;SDS011;13887;57.196;-2.100;2023-07-28T00:10:51;12.90;;;12.50;;
22068;SDS011;13887;57.196;-2.100;2023-07-28T00:13:18;12.93;;;12.53;;
22068;SDS011;13887;57.196;-2.100;2023-07-28T00:15:46;12.80;;;12.40;;
22068;SDS011;13887;57.196;-2.100;2023-07-28T00:18:13;12.93;;;12.53;;
22068;SDS011;13887;57.196;-2.100;2023-07-28T00:20:40;12.90;;;12.50;;
22068;SDS011;13887;57.196;-2.100;2023-07-28T00:23:08;13.03;;;12.63;;
22068;SDS011;13887;57.196;-2.100;2023-07-28T00:25:35;12.63;;;12.23;;
22068;SDS011;13887;57.196;-2.100;2023-07-28T00:28:02;12.60;;;12.20;;
22068;SDS011;13887;57.196;-2.100;2023-07-28T00:30:30;12.90;;;12.50;;
22068;SDS011;13887;57.196;-2.100;2023-07-28T00:32:58;12.90;;;12.50;;
22068;SDS011;13887;57.196;-2.100;2023-07-28T00:35:25;12.67;;;12.27;;
22068;SDS011;13887;57.196;-2.100;2023-07-28T00:37:52;13.00;;;12.60;;
22068;SDS011;13887;57.196;-2.100;2023-07-28T00:40:20;12.80;;;12.40;;
22068;SDS011;13887;57.196;-2.100;2023-07-28T00:42:49;12.90;;;12.50;;
22068;SDS011;13887;57.196;-2.100;2023-07-28T00:45:16;13.10;;;12.70;;
22068;SDS011;13887;57.196;-2.100;2023-07-28T00:47:45;13.50;;;13.00;;
22068;SDS011;13887;57.196;-2.100;2023-07-28T00:50:13;12.83;;;12.43;;
22068;SDS011;13887;57.196;-2.100;2023-07-28T00:52:40;12.87;;;12.47;;
22068;SDS011;13887;57.196;-2.100;2023-07-28T00:55:08;12.87;;;12.47;;
22068;SDS011;13887;57.196;-2.100;2023-07-28T00:57:35;12.73;;;12.33;;
22068;SDS011;13887;57.196;-2.100;2023-07-28T01:00:06;12.63;;;12.23;;
22068;SDS011;13887;57.196;-2.100;2023-07-28T01:02:33;12.60;;;12.20;;
22068;SDS011;13887;57.196;-2.100;2023-07-28T01:05:01;12.20;;;11.80;;
22068;SDS011;13887;57.196;-2.100;2023-07-28T01:10:02;12.20;;;11.80;;
22068;SDS011;13887;57.196;-2.100;2023-07-28T01:12:42;12.53;;;12.13;;
22068;SDS011;13887;57.196;-2.100;2023-07-28T01:15:09;11.73;;;11.33;;
22068;SDS011;13887;57.196;-2.100;2023-07-28T01:17:36;12.47;;;12.07;;
22068;SDS011;13887;57.196;-2.100;2023-07-28T01:20:04;12.20;;;11.80;;
22068;SDS011;13887;57.196;-2.100;2023-07-28T01:28:42;12.37;;;11.97;;
22068;SDS011;13887;57.196;-2.100;2023-07-28T01:31:10;12.53;;;12.13;;
22068;SDS011;13887;57.196;-2.100;2023-07-28T01:33:38;12.10;;;11.70;;
22068;SDS011;13887;57.196;-2.100;2023-07-28T01:36:05;12.27;;;11.87;;
22068;SDS011;13887;57.196;-2.100;2023-07-28T01:38:32;12.33;;;11.93;;
22068;SDS011;13887;57.196;-2.100;2023-07-28T01:40:59;12.17;;;11.77;;
22068;SDS011;13887;57.196;-2.100;2023-07-28T01:43:27;12.27;;;11.87;;
22068;SDS011;13887;57.196;-2.100;2023-07-28T01:45:54;12.27;;;11.87;;
22068;SDS011;13887;57.196;-2.100;2023-07-28T01:48:21;12.20;;;11.80;;
22068;SDS011;13887;57.196;-2.100;2023-07-28T01:50:48;12.10;;;11.70;;
22068;SDS011;13887;57.196;-2.100;2023-07-28T01:53:15;12.30;;;11.90;;
22068;SDS011;13887;57.196;-2.100;2023-07-28T01:55:42;12.00;;;11.60;;
22068;SDS011;13887;57.196;-2.100;2023-07-28T01:58:09;12.33;;;11.93;;
22068;SDS011;13887;57.196;-2.100;2023-07-28T02:00:36;12.37;;;11.97;;
22068;SDS011;13887;57.196;-2.100;2023-07-28T02:03:03;12.40;;;12.00;;
22068;SDS011;13887;57.196;-2.100;2023-07-28T02:05:31;12.27;;;11.87;;
22068;SDS011;13887;57.196;-2.100;2023-07-28T02:07:58;12.40;;;12.00;;
22068;SDS011;13887;57.196;-2.100;2023-07-28T02:10:26;12.30;;;11.90;;
22068;SDS011;13887;57.196;-2.100;2023-07-28T02:12:55;12.00;;;11.60;;
22068;SDS011;13887;57.196;-2.100;2023-07-28T02:15:22;11.97;;;11.57;;
22068;SDS011;13887;57.196;-2.100;2023-07-28T02:17:49;12.00;;;11.60;;
22068;SDS011;13887;57.196;-2.100;2023-07-28T02:20:20;12.07;;;11.67;;
22068;SDS011;13887;57.196;-2.100;2023-07-28T02:22:47;12.20;;;11.80;;
22068;SDS011;13887;57.196;-2.100;2023-07-28T02:25:15;12.33;;;11.93;;
22068;SDS011;13887;57.196;-2.100;2023-07-28T02:27:42;12.20;;;11.80;;
22068;SDS011;13887;57.196;-2.100;2023-07-28T02:30:09;12.03;;;11.63;;
22068;SDS011;13887;57.196;-2.100;2023-07-28T02:32:37;12.33;;;11.93;;
22068;SDS011;13887;57.196;-2.100;2023-07-28T02:35:04;12.13;;;11.73;;
22068;SDS011;13887;57.196;-2.100;2023-07-28T02:37:32;12.27;;;11.87;;
22068;SDS011;13887;57.196;-2.100;2023-07-28T02:39:59;12.20;;;11.80;;
22068;SDS011;13887;57.196;-2.100;2023-07-28T02:42:26;12.20;;;11.80;;
22068;SDS011;13887;57.196;-2.100;2023-07-28T02:44:53;12.10;;;11.70;;
22068;SDS011;13887;57.196;-2.100;2023-07-28T02:47:21;12.10;;;11.70;;
22068;SDS011;13887;57.196;-2.100;2023-07-28T02:49:48;11.97;;;11.57;;
22068;SDS011;13887;57.196;-2.100;2023-07-28T02:52:15;11.67;;;11.27;;
22068;SDS011;13887;57.196;-2.100;2023-07-28T02:54:42;12.40;;;12.00;;
22068;SDS011;13887;57.196;-2.100;2023-07-28T02:57:09;11.90;;;11.50;;
22068;SDS011;13887;57.196;-2.100;2023-07-28T02:59:40;12.20;;;11.80;;
22068;SDS011;13887;57.196;-2.100;2023-07-28T03:02:08;11.90;;;11.50;;
22068;SDS011;13887;57.196;-2.100;2023-07-28T03:04:35;12.00;;;11.60;;
22068;SDS011;13887;57.196;-2.100;2023-07-28T03:07:34;11.80;;;11.40;;
22068;SDS011;13887;57.196;-2.100;2023-07-28T03:10:05;11.60;;;11.20;;
22068;SDS011;13887;57.196;-2.100;2023-07-28T03:12:35;11.70;;;11.30;;
22068;SDS011;13887;57.196;-2.100;2023-07-28T03:15:02;11.93;;;11.53;;
22068;SDS011;13887;57.196;-2.100;2023-07-28T03:17:30;11.60;;;11.20;;
22068;SDS011;13887;57.196;-2.100;2023-07-28T03:19:57;12.00;;;11.60;;
22068;SDS011;13887;57.196;-2.100;2023-07-28T03:22:24;11.90;;;11.50;;
22068;SDS011;13887;57.196;-2.100;2023-07-28T03:24:51;12.30;;;11.90;;
22068;SDS011;13887;57.196;-2.100;2023-07-28T03:27:19;12.17;;;11.77;;
22068;SDS011;13887;57.196;-2.100;2023-07-28T03:29:46;11.90;;;11.50;;
22068;SDS011;13887;57.196;-2.100;2023-07-28T03:32:14;12.10;;;11.70;;
22068;SDS011;13887;57.196;-2.100;2023-07-28T03:34:41;11.97;;;11.57;;
22068;SDS011;13887;57.196;-2.100;2023-07-28T03:37:11;11.90;;;11.50;;
22068;SDS011;13887;57.196;-2.100;2023-07-28T03:39:39;11.73;;;11.33;;
22068;SDS011;13887;57.196;-2.100;2023-07-28T03:42:07;12.10;;;11.70;;
22068;SDS011;13887;57.196;-2.100;2023-07-28T03:44:34;11.97;;;11.57;;
22068;SDS011;13887;57.196;-2.100;2023-07-28T03:47:04;11.97;;;11.57;;
22068;SDS011;13887;57.196;-2.100;2023-07-28T03:49:31;11.97;;;11.57;;
22068;SDS011;13887;57.196;-2.100;2023-07-28T03:51:59;11.90;;;11.50;;
22068;SDS011;13887;57.196;-2.100;2023-07-28T03:54:26;11.90;;;11.50;;
22068;SDS011;13887;57.196;-2.100;2023-07-28T03:56:53;12.27;;;11.87;;
22068;SDS011;13887;57.196;-2.100;2023-07-28T03:59:20;12.20;;;11.80;;
22068;SDS011;13887;57.196;-2.100;2023-07-28T04:01:48;12.20;;;11.80;;
22068;SDS011;13887;57.196;-2.100;2023-07-28T04:04:15;12.50;;;12.10;;
22068;SDS011;13887;57.196;-2.100;2023-07-28T04:06:43;12.13;;;11.73;;
22068;SDS011;13887;57.196;-2.100;2023-07-28T04:09:12;12.27;;;11.87;;
22068;SDS011;13887;57.196;-2.100;2023-07-28T04:11:41;12.43;;;12.03;;
22068;SDS011;13887;57.196;-2.100;2023-07-28T04:14:09;11.83;;;11.43;;
22068;SDS011;13887;57.196;-2.100;2023-07-28T04:16:36;12.40;;;12.00;;
22068;SDS011;13887;57.196;-2.100;2023-07-28T04:19:06;11.90;;;11.50;;
22068;SDS011;13887;57.196;-2.100;2023-07-28T04:21:33;12.57;;;12.17;;
22068;SDS011;13887;57.196;-2.100;2023-07-28T04:24:00;11.93;;;11.53;;
22068;SDS011;13887;57.196;-2.100;2023-07-28T04:26:27;12.47;;;12.07;;
22068;SDS011;13887;57.196;-2.100;2023-07-28T04:28:59;12.37;;;11.97;;
22068;SDS011;13887;57.196;-2.100;2023-07-28T04:31:27;12.40;;;12.00;;
22068;SDS011;13887;57.196;-2.100;2023-07-28T04:33:58;12.60;;;12.20;;
22068;SDS011;13887;57.196;-2.100;2023-07-28T04:36:39;12.70;;;12.30;;
22068;SDS011;13887;57.196;-2.100;2023-07-28T04:39:06;12.40;;;12.00;;
22068;SDS011;13887;57.196;-2.100;2023-07-28T04:41:33;12.83;;;12.43;;
22068;SDS011;13887;57.196;-2.100;2023-07-28T04:44:00;12.33;;;11.93;;
22068;SDS011;13887;57.196;-2.100;2023-07-28T04:46:32;12.70;;;12.30;;
22068;SDS011;13887;57.196;-2.100;2023-07-28T04:49:03;12.50;;;12.10;;
22068;SDS011;13887;57.196;-2.100;2023-07-28T04:51:56;12.40;;;12.00;;
22068;SDS011;13887;57.196;-2.100;2023-07-28T04:54:50;12.07;;;11.67;;
22068;SDS011;13887;57.196;-2.100;2023-07-28T04:57:18;12.60;;;12.20;;
22068;SDS011;13887;57.196;-2.100;2023-07-28T04:59:46;12.27;;;11.87;;
22068;SDS011;13887;57.196;-2.100;2023-07-28T05:02:13;12.50;;;12.10;;
22068;SDS011;13887;57.196;-2.100;2023-07-28T05:04:40;12.33;;;11.93;;
22068;SDS011;13887;57.196;-2.100;2023-07-28T05:07:07;12.57;;;12.17;;
22068;SDS011;13887;57.196;-2.100;2023-07-28T05:09:34;12.80;;;12.40;;
22068;SDS011;13887;57.196;-2.100;2023-07-28T05:12:02;12.77;;;12.37;;
22068;SDS011;13887;57.196;-2.100;2023-07-28T05:14:34;12.67;;;12.27;;
22068;SDS011;13887;57.196;-2.100;2023-07-28T05:17:01;12.60;;;12.20;;
22068;SDS011;13887;57.196;-2.100;2023-07-28T05:19:38;12.33;;;11.93;;
22068;SDS011;13887;57.196;-2.100;2023-07-28T05:22:25;12.90;;;12.50;;
22068;SDS011;13887;57.196;-2.100;2023-07-28T05:24:54;12.43;;;12.03;;
22068;SDS011;13887;57.196;-2.100;2023-07-28T05:27:25;12.60;;;12.20;;
22068;SDS011;13887;57.196;-2.100;2023-07-28T05:29:53;12.63;;;12.23;;
22068;SDS011;13887;57.196;-2.100;2023-07-28T05:32:20;12.50;;;12.10;;
22068;SDS011;13887;57.196;-2.100;2023-07-28T05:35:07;12.60;;;12.20;;
22068;SDS011;13887;57.196;-2.100;2023-07-28T05:37:35;12.40;;;12.00;;
22068;SDS011;13887;57.196;-2.100;2023-07-28T05:40:02;12.50;;;12.10;;
22068;SDS011;13887;57.196;-2.100;2023-07-28T05:42:32;12.57;;;12.17;;
22068;SDS011;13887;57.196;-2.100;2023-07-28T05:44:59;12.60;;;12.20;;
22068;SDS011;13887;57.196;-2.100;2023-07-28T05:47:26;12.23;;;11.83;;
22068;SDS011;13887;57.196;-2.100;2023-07-28T05:49:53;12.70;;;12.30;;
22068;SDS011;13887;57.196;-2.100;2023-07-28T05:52:21;13.10;;;12.70;;
22068;SDS011;13887;57.196;-2.100;2023-07-28T05:54:51;13.07;;;12.67;;
22068;SDS011;13887;57.196;-2.100;2023-07-28T05:57:18;12.80;;;12.40;;
22068;SDS011;13887;57.196;-2.100;2023-07-28T05:59:46;12.63;;;12.23;;
22068;SDS011;13887;57.196;-2.100;2023-07-28T06:02:13;12.73;;;12.33;;
22068;SDS011;13887;57.196;-2.100;2023-07-28T06:05:00;12.63;;;12.23;;
22068;SDS011;13887;57.196;-2.100;2023-07-28T06:07:28;12.40;;;12.00;;
22068;SDS011;13887;57.196;-2.100;2023-07-28T06:09:58;12.70;;;12.30;;
22068;SDS011;13887;57.196;-2.100;2023-07-28T06:12:25;12.60;;;12.20;;
22068;SDS011;13887;57.196;-2.100;2023-07-28T06:14:52;12.90;;;12.50;;
22068;SDS011;13887;57.196;-2.100;2023-07-28T06:17:19;12.90;;;12.50;;
22068;SDS011;13887;57.196;-2.100;2023-07-28T06:19:46;12.93;;;12.53;;
22068;SDS011;13887;57.196;-2.100;2023-07-28T06:22:13;13.20;;;12.80;;
22068;SDS011;13887;57.196;-2.100;2023-07-28T06:24:43;13.50;;;13.00;;
22068;SDS011;13887;57.196;-2.100;2023-07-28T06:27:10;12.80;;;12.40;;
22068;SDS011;13887;57.196;-2.100;2023-07-28T06:29:38;13.03;;;12.63;;
22068;SDS011;13887;57.196;-2.100;2023-07-28T06:32:06;12.80;;;12.40;;
22068;SDS011;13887;57.196;-2.100;2023-07-28T06:34:34;12.90;;;12.50;;
22068;SDS011;13887;57.196;-2.100;2023-07-28T06:37:01;12.23;;;11.83;;
22068;SDS011;13887;57.196;-2.100;2023-07-28T06:39:29;12.60;;;12.20;;
22068;SDS011;13887;57.196;-2.100;2023-07-28T06:41:57;12.27;;;11.87;;
22068;SDS011;13887;57.196;-2.100;2023-07-28T06:44:25;12.80;;;12.40;;
22068;SDS011;13887;57.196;-2.100;2023-07-28T06:46:53;12.27;;;11.87;;
22068;SDS011;13887;57.196;-2.100;2023-07-28T06:49:20;12.60;;;12.20;;
22068;SDS011;13887;57.196;-2.100;2023-07-28T06:51:47;12.47;;;12.07;;
22068;SDS011;13887;57.196;-2.100;2023-07-28T06:54:17;12.17;;;11.77;;
22068;SDS011;13887;57.196;-2.100;2023-07-28T06:56:45;12.60;;;12.20;;
22068;SDS011;13887;57.196;-2.100;2023-07-28T06:59:12;12.50;;;12.10;;
22068;SDS011;13887;57.196;-2.100;2023-07-28T07:01:44;12.90;;;12.50;;
22068;SDS011;13887;57.196;-2.100;2023-07-28T07:04:11;12.37;;;11.97;;
22068;SDS011;13887;57.196;-2.100;2023-07-28T07:06:38;12.47;;;12.07;;
22068;SDS011;13887;57.196;-2.100;2023-07-28T07:09:05;12.50;;;12.10;;
22068;SDS011;13887;57.196;-2.100;2023-07-28T07:11:33;13.63;;;13.13;;
22068;SDS011;13887;57.196;-2.100;2023-07-28T07:14:02;13.40;;;13.00;;
22068;SDS011;13887;57.196;-2.100;2023-07-28T07:16:30;13.13;;;12.73;;
22068;SDS011;13887;57.196;-2.100;2023-07-28T07:18:57;13.30;;;12.90;;
22068;SDS011;13887;57.196;-2.100;2023-07-28T07:21:24;13.40;;;13.00;;
22068;SDS011;13887;57.196;-2.100;2023-07-28T07:23:53;13.67;;;13.17;;
22068;SDS011;13887;57.196;-2.100;2023-07-28T07:26:26;13.10;;;12.70;;
22068;SDS011;13887;57.196;-2.100;2023-07-28T07:28:53;13.40;;;13.00;;
22068;SDS011;13887;57.196;-2.100;2023-07-28T07:31:20;13.20;;;12.80;;
22068;SDS011;13887;57.196;-2.100;2023-07-28T07:33:47;13.60;;;13.10;;
22068;SDS011;13887;57.196;-2.100;2023-07-28T07:36:15;13.53;;;13.07;;
22068;SDS011;13887;57.196;-2.100;2023-07-28T07:38:44;13.13;;;12.73;;
22068;SDS011;13887;57.196;-2.100;2023-07-28T07:41:18;13.23;;;12.83;;
22068;SDS011;13887;57.196;-2.100;2023-07-28T07:43:48;13.40;;;13.00;;
22068;SDS011;13887;57.196;-2.100;2023-07-28T07:46:16;13.10;;;12.70;;
22068;SDS011;13887;57.196;-2.100;2023-07-28T07:48:46;12.93;;;12.53;;
22068;SDS011;13887;57.196;-2.100;2023-07-28T07:51:13;13.27;;;12.87;;
22068;SDS011;13887;57.196;-2.100;2023-07-28T07:53:40;13.20;;;12.80;;
22068;SDS011;13887;57.196;-2.100;2023-07-28T07:56:08;13.77;;;13.27;;
22068;SDS011;13887;57.196;-2.100;2023-07-28T07:58:36;12.80;;;12.40;;
22068;SDS011;13887;57.196;-2.100;2023-07-28T08:01:03;13.57;;;13.07;;
22068;SDS011;13887;57.196;-2.100;2023-07-28T08:03:31;13.17;;;12.77;;
22068;SDS011;13887;57.196;-2.100;2023-07-28T08:05:58;13.00;;;12.60;;
22068;SDS011;13887;57.196;-2.100;2023-07-28T08:08:26;13.40;;;12.97;;
22068;SDS011;13887;57.196;-2.100;2023-07-28T08:10:54;13.63;;;13.13;;
22068;SDS011;13887;57.196;-2.100;2023-07-28T08:13:22;13.27;;;12.87;;
22068;SDS011;13887;57.196;-2.100;2023-07-28T08:15:49;13.60;;;13.10;;
22068;SDS011;13887;57.196;-2.100;2023-07-28T08:18:16;13.47;;;13.03;;
22068;SDS011;13887;57.196;-2.100;2023-07-28T08:20:43;13.70;;;13.20;;
22068;SDS011;13887;57.196;-2.100;2023-07-28T08:23:11;13.13;;;12.73;;
22068;SDS011;13887;57.196;-2.100;2023-07-28T08:25:38;13.30;;;12.90;;
22068;SDS011;13887;57.196;-2.100;2023-07-28T08:28:05;14.00;;;13.50;;
22068;SDS011;13887;57.196;-2.100;2023-07-28T08:30:32;13.57;;;13.13;;
22068;SDS011;13887;57.196;-2.100;2023-07-28T08:33:00;13.37;;;12.97;;
22068;SDS011;13887;57.196;-2.100;2023-07-28T08:35:28;13.87;;;13.37;;
22068;SDS011;13887;57.196;-2.100;2023-07-28T08:37:56;13.63;;;13.17;;
22068;SDS011;13887;57.196;-2.100;2023-07-28T08:40:23;13.50;;;13.10;;
22068;SDS011;13887;57.196;-2.100;2023-07-28T08:42:51;14.03;;;13.53;;
22068;SDS011;13887;57.196;-2.100;2023-07-28T08:45:18;13.73;;;13.23;;
22068;SDS011;13887;57.196;-2.100;2023-07-28T08:47:46;13.20;;;12.80;;
22068;SDS011;13887;57.196;-2.100;2023-07-28T08:50:13;13.47;;;13.07;;
22068;SDS011;13887;57.196;-2.100;2023-07-28T08:52:40;13.47;;;13.03;;
22068;SDS011;13887;57.196;-2.100;2023-07-28T08:55:08;13.17;;;12.77;;
22068;SDS011;13887;57.196;-2.100;2023-07-28T08:57:36;13.90;;;13.40;;
22068;SDS011;13887;57.196;-2.100;2023-07-28T09:00:07;13.70;;;13.20;;
22068;SDS011;13887;57.196;-2.100;2023-07-28T09:02:36;13.70;;;13.20;;
22068;SDS011;13887;57.196;-2.100;2023-07-28T09:05:03;13.43;;;13.03;;
22068;SDS011;13887;57.196;-2.100;2023-07-28T09:07:35;14.03;;;13.53;;
22068;SDS011;13887;57.196;-2.100;2023-07-28T09:10:03;13.40;;;13.00;;
22068;SDS011;13887;57.196;-2.100;2023-07-28T09:12:31;13.90;;;13.40;;
22068;SDS011;13887;57.196;-2.100;2023-07-28T09:14:59;13.57;;;13.07;;
22068;SDS011;13887;57.196;-2.100;2023-07-28T09:17:27;13.87;;;13.37;;
22068;SDS011;13887;57.196;-2.100;2023-07-28T09:20:00;13.57;;;13.07;;
22068;SDS011;13887;57.196;-2.100;2023-07-28T09:22:29;13.20;;;12.80;;
22068;SDS011;13887;57.196;-2.100;2023-07-28T09:24:56;13.60;;;13.10;;
22068;SDS011;13887;57.196;-2.100;2023-07-28T09:27:25;13.20;;;12.80;;
22068;SDS011;13887;57.196;-2.100;2023-07-28T09:29:55;13.00;;;12.60;;
22068;SDS011;13887;57.196;-2.100;2023-07-28T09:32:29;13.20;;;12.80;;
22068;SDS011;13887;57.196;-2.100;2023-07-28T09:35:07;13.13;;;12.73;;
22068;SDS011;13887;57.196;-2.100;2023-07-28T09:37:40;13.10;;;12.70;;
22068;SDS011;13887;57.196;-2.100;2023-07-28T09:40:10;12.97;;;12.57;;
22068;SDS011;13887;57.196;-2.100;2023-07-28T09:42:39;13.47;;;13.07;;
22068;SDS011;13887;57.196;-2.100;2023-07-28T09:45:07;13.60;;;13.13;;
22068;SDS011;13887;57.196;-2.100;2023-07-28T09:47:57;13.13;;;12.73;;
22068;SDS011;13887;57.196;-2.100;2023-07-28T09:50:27;13.23;;;12.83;;
22068;SDS011;13887;57.196;-2.100;2023-07-28T09:53:00;13.03;;;12.63;;
22068;SDS011;13887;57.196;-2.100;2023-07-28T09:55:29;13.30;;;12.90;;
22068;SDS011;13887;57.196;-2.100;2023-07-28T09:57:58;13.67;;;13.17;;
22068;SDS011;13887;57.196;-2.100;2023-07-28T10:00:28;13.10;;;12.70;;
22068;SDS011;13887;57.196;-2.100;2023-07-28T10:02:56;12.80;;;12.40;;
22068;SDS011;13887;57.196;-2.100;2023-07-28T10:05:24;12.70;;;12.30;;
22068;SDS011;13887;57.196;-2.100;2023-07-28T10:07:51;12.97;;;12.57;;
22068;SDS011;13887;57.196;-2.100;2023-07-28T10:10:19;12.73;;;12.33;;
22068;SDS011;13887;57.196;-2.100;2023-07-28T10:12:50;12.80;;;12.40;;
22068;SDS011;13887;57.196;-2.100;2023-07-28T10:15:19;13.10;;;12.70;;
22068;SDS011;13887;57.196;-2.100;2023-07-28T10:17:50;14.00;;;13.50;;
22068;SDS011;13887;57.196;-2.100;2023-07-28T10:20:38;13.23;;;12.83;;
22068;SDS011;13887;57.196;-2.100;2023-07-28T10:23:13;13.47;;;13.03;;
22068;SDS011;13887;57.196;-2.100;2023-07-28T10:25:42;13.27;;;12.87;;
22068;SDS011;13887;57.196;-2.100;2023-07-28T10:31:14;12.93;;;12.53;;
22068;SDS011;13887;57.196;-2.100;2023-07-28T10:33:57;13.33;;;12.93;;
22068;SDS011;13887;57.196;-2.100;2023-07-28T10:39:01;13.20;;;12.80;;
22068;SDS011;13887;57.196;-2.100;2023-07-28T10:42:01;13.47;;;13.07;;
22068;SDS011;13887;57.196;-2.100;2023-07-28T10:44:29;13.10;;;12.70;;
22068;SDS011;13887;57.196;-2.100;2023-07-28T10:46:57;12.90;;;12.50;;
22068;SDS011;13887;57.196;-2.100;2023-07-28T10:49:25;12.70;;;12.30;;
22068;SDS011;13887;57.196;-2.100;2023-07-28T10:51:52;13.13;;;12.73;;
22068;SDS011;13887;57.196;-2.100;2023-07-28T10:54:20;12.90;;;12.50;;
22068;SDS011;13887;57.196;-2.100;2023-07-28T10:56:47;13.10;;;12.70;;
22068;SDS011;13887;57.196;-2.100;2023-07-28T10:59:15;13.10;;;12.70;;
22068;SDS011;13887;57.196;-2.100;2023-07-28T11:01:42;13.40;;;13.00;;
22068;SDS011;13887;57.196;-2.100;2023-07-28T11:06:45;13.03;;;12.63;;
22068;SDS011;13887;57.196;-2.100;2023-07-28T11:09:16;13.30;;;12.90;;
22068;SDS011;13887;57.196;-2.100;2023-07-28T11:11:44;13.60;;;13.10;;
22068;SDS011;13887;57.196;-2.100;2023-07-28T11:14:14;13.17;;;12.77;;
22068;SDS011;13887;57.196;-2.100;2023-07-28T11:16:44;13.27;;;12.87;;
22068;SDS011;13887;57.196;-2.100;2023-07-28T11:19:15;13.60;;;13.10;;
22068;SDS011;13887;57.196;-2.100;2023-07-28T11:21:45;13.37;;;12.97;;
22068;SDS011;13887;57.196;-2.100;2023-07-28T11:24:18;13.00;;;12.60;;
22068;SDS011;13887;57.196;-2.100;2023-07-28T11:26:47;13.13;;;12.73;;
22068;SDS011;13887;57.196;-2.100;2023-07-28T11:29:15;12.90;;;12.50;;
22068;SDS011;13887;57.196;-2.100;2023-07-28T11:31:43;13.17;;;12.77;;
22068;SDS011;13887;57.196;-2.100;2023-07-28T11:34:13;13.20;;;12.80;;
22068;SDS011;13887;57.196;-2.100;2023-07-28T11:36:41;12.83;;;12.43;;
22068;SDS011;13887;57.196;-2.100;2023-07-28T11:39:09;13.53;;;13.07;;
22068;SDS011;13887;57.196;-2.100;2023-07-28T11:41:37;13.37;;;12.97;;
22068;SDS011;13887;57.196;-2.100;2023-07-28T11:44:05;13.60;;;13.10;;
22068;SDS011;13887;57.196;-2.100;2023-07-28T11:46:37;13.20;;;12.80;;
22068;SDS011;13887;57.196;-2.100;2023-07-28T11:49:06;13.03;;;12.63;;
22068;SDS011;13887;57.196;-2.100;2023-07-28T11:51:46;13.80;;;13.30;;
22068;SDS011;13887;57.196;-2.100;2023-07-28T11:54:16;13.80;;;13.30;;
22068;SDS011;13887;57.196;-2.100;2023-07-28T11:56:47;13.90;;;13.40;;
22068;SDS011;13887;57.196;-2.100;2023-07-28T11:59:16;13.30;;;12.90;;
22068;SDS011;13887;57.196;-2.100;2023-07-28T12:04:28;13.40;;;13.00;;
22068;SDS011;13887;57.196;-2.100;2023-07-28T12:07:15;13.60;;;13.10;;
22068;SDS011;13887;57.196;-2.100;2023-07-28T12:09:47;13.23;;;12.83;;
22068;SDS011;13887;57.196;-2.100;2023-07-28T12:12:30;13.50;;;13.03;;
22068;SDS011;13887;57.196;-2.100;2023-07-28T12:15:01;13.90;;;13.40;;
22068;SDS011;13887;57.196;-2.100;2023-07-28T12:17:34;13.80;;;13.30;;
22068;SDS011;13887;57.196;-2.100;2023-07-28T12:20:06;13.83;;;13.33;;
22068;SDS011;13887;57.196;-2.100;2023-07-28T12:22:42;13.23;;;12.83;;
22068;SDS011;13887;57.196;-2.100;2023-07-28T12:25:11;13.70;;;13.20;;
22068;SDS011;13887;57.196;-2.100;2023-07-28T12:27:38;13.97;;;13.47;;
22068;SDS011;13887;57.196;-2.100;2023-07-28T12:30:06;13.93;;;13.43;;
22068;SDS011;13887;57.196;-2.100;2023-07-28T12:32:42;13.97;;;13.47;;
22068;SDS011;13887;57.196;-2.100;2023-07-28T12:35:28;14.17;;;13.67;;
22068;SDS011;13887;57.196;-2.100;2023-07-28T12:38:04;13.83;;;13.33;;
22068;SDS011;13887;57.196;-2.100;2023-07-28T12:40:35;13.97;;;13.47;;
22068;SDS011;13887;57.196;-2.100;2023-07-28T12:43:05;13.90;;;13.40;;
22068;SDS011;13887;57.196;-2.100;2023-07-28T12:45:33;13.03;;;12.63;;
22068;SDS011;13887;57.196;-2.100;2023-07-28T12:48:03;13.53;;;13.10;;
22068;SDS011;13887;57.196;-2.100;2023-07-28T12:50:31;13.30;;;12.90;;
22068;SDS011;13887;57.196;-2.100;2023-07-28T12:53:01;13.60;;;13.13;;
22068;SDS011;13887;57.196;-2.100;2023-07-28T12:55:41;14.00;;;13.50;;
22068;SDS011;13887;57.196;-2.100;2023-07-28T12:58:11;13.90;;;13.40;;
22068;SDS011;13887;57.196;-2.100;2023-07-28T13:00:41;14.10;;;13.60;;
22068;SDS011;13887;57.196;-2.100;2023-07-28T13:03:12;13.63;;;13.13;;
22068;SDS011;13887;57.196;-2.100;2023-07-28T13:05:39;14.10;;;13.60;;
22068;SDS011;13887;57.196;-2.100;2023-07-28T13:08:10;14.20;;;13.70;;
22068;SDS011;13887;57.196;-2.100;2023-07-28T13:10:37;13.90;;;13.40;;
22068;SDS011;13887;57.196;-2.100;2023-07-28T13:13:07;14.27;;;13.77;;
22068;SDS011;13887;57.196;-2.100;2023-07-28T13:15:38;14.17;;;13.67;;
22068;SDS011;13887;57.196;-2.100;2023-07-28T13:18:05;14.30;;;13.80;;
22068;SDS011;13887;57.196;-2.100;2023-07-28T13:20:32;14.07;;;13.57;;
22068;SDS011;13887;57.196;-2.100;2023-07-28T13:22:59;13.90;;;13.40;;
22068;SDS011;13887;57.196;-2.100;2023-07-28T13:25:27;14.13;;;13.63;;
22068;SDS011;13887;57.196;-2.100;2023-07-28T13:27:54;14.13;;;13.63;;
22068;SDS011;13887;57.196;-2.100;2023-07-28T13:30:21;14.30;;;13.80;;
22068;SDS011;13887;57.196;-2.100;2023-07-28T13:32:48;14.43;;;13.93;;
22068;SDS011;13887;57.196;-2.100;2023-07-28T13:35:16;13.80;;;13.30;;
22068;SDS011;13887;57.196;-2.100;2023-07-28T13:37:43;14.17;;;13.67;;
22068;SDS011;13887;57.196;-2.100;2023-07-28T13:40:10;14.27;;;13.77;;
22068;SDS011;13887;57.196;-2.100;2023-07-28T13:42:39;14.03;;;13.53;;
22068;SDS011;13887;57.196;-2.100;2023-07-28T13:45:08;14.17;;;13.67;;
22068;SDS011;13887;57.196;-2.100;2023-07-28T13:47:36;14.60;;;14.10;;
22068;SDS011;13887;57.196;-2.100;2023-07-28T13:50:03;14.30;;;13.80;;
22068;SDS011;13887;57.196;-2.100;2023-07-28T13:52:30;14.03;;;13.53;;
22068;SDS011;13887;57.196;-2.100;2023-07-28T13:54:58;14.43;;;13.93;;
22068;SDS011;13887;57.196;-2.100;2023-07-28T13:57:28;13.97;;;13.47;;
22068;SDS011;13887;57.196;-2.100;2023-07-28T13:59:55;13.93;;;13.43;;
22068;SDS011;13887;57.196;-2.100;2023-07-28T14:02:22;14.20;;;13.70;;
22068;SDS011;13887;57.196;-2.100;2023-07-28T14:04:50;14.13;;;13.63;;
22068;SDS011;13887;57.196;-2.100;2023-07-28T14:07:17;14.10;;;13.60;;
22068;SDS011;13887;57.196;-2.100;2023-07-28T14:09:44;14.27;;;13.77;;
22068;SDS011;13887;57.196;-2.100;2023-07-28T14:12:12;14.10;;;13.60;;
22068;SDS011;13887;57.196;-2.100;2023-07-28T14:14:39;14.30;;;13.80;;
22068;SDS011;13887;57.196;-2.100;2023-07-28T14:17:06;14.43;;;13.93;;
22068;SDS011;13887;57.196;-2.100;2023-07-28T14:19:33;14.67;;;14.17;;
22068;SDS011;13887;57.196;-2.100;2023-07-28T14:22:01;14.10;;;13.60;;
22068;SDS011;13887;57.196;-2.100;2023-07-28T14:24:28;14.40;;;13.90;;
22068;SDS011;13887;57.196;-2.100;2023-07-28T14:26:55;14.10;;;13.60;;
22068;SDS011;13887;57.196;-2.100;2023-07-28T14:29:24;14.00;;;13.50;;
22068;SDS011;13887;57.196;-2.100;2023-07-28T14:31:51;14.30;;;13.80;;
22068;SDS011;13887;57.196;-2.100;2023-07-28T14:34:19;14.23;;;13.73;;
22068;SDS011;13887;57.196;-2.100;2023-07-28T14:36:46;14.37;;;13.87;;
22068;SDS011;13887;57.196;-2.100;2023-07-28T14:39:13;14.30;;;13.80;;